Time;durP1;ratioP1;P1;durP2;ratioP2;P2;SDS_P1;SDS_P2;PMS_P1;PMS_P2;Temp;Humidity;BMP_temperature;BMP_pressure;BME280_temperature;BME280_humidity;BME280_pressure;Samples;Min_cycle;Max_cycle;Signal;HPM_P1;HPM_P2
2022/02/18 00:02:25;;;;;;;25.88;3.80;;;8.30;81.40;;;;;;5060710;28;20356;-64
2022/02/18 00:04:50;;;;;;;18.00;4.00;;;8.30;81.50;;;;;;5063341;28;20031;-65
2022/02/18 00:07:16;;;;;;;13.38;2.92;;;8.30;81.60;;;;;;5103229;28;20581;-65
2022/02/18 00:09:42;;;;;;;20.33;3.78;;;8.30;81.60;;;;;;5056819;28;20021;-65
2022/02/18 00:12:07;;;;;;;17.70;3.63;;;8.30;81.70;;;;;;5052832;28;20060;-65
2022/02/18 00:14:33;;;;;;;19.63;3.38;;;8.30;81.60;;;;;;5066653;28;20033;-65
2022/02/18 00:16:59;;;;;;;19.58;3.33;;;8.30;81.50;;;;;;5067958;28;20035;-65
2022/02/18 00:19:25;;;;;;;20.20;3.95;;;8.30;81.60;;;;;;5063145;28;20032;-65
2022/02/18 00:21:50;;;;;;;14.45;3.08;;;8.30;81.60;;;;;;5067233;28;20037;-65
2022/02/18 00:24:16;;;;;;;20.88;4.32;;;8.30;81.50;;;;;;5057813;28;20045;-65
2022/02/18 00:26:43;;;;;;;15.95;3.20;;;8.30;81.50;;;;;;5068918;28;20024;-66
2022/02/18 00:29:09;;;;;;;19.13;4.50;;;8.30;81.50;;;;;;5052440;28;20442;-65
2022/02/18 00:31:34;;;;;;;17.55;3.33;;;8.30;81.50;;;;;;5040429;28;20029;-65
2022/02/18 00:34:00;;;;;;;24.88;3.90;;;8.30;81.50;;;;;;5051612;28;20083;-65
2022/02/18 00:36:26;;;;;;;16.88;3.08;;;8.30;81.40;;;;;;5052445;28;20043;-65
2022/02/18 00:38:51;;;;;;;19.00;3.47;;;8.40;81.50;;;;;;5055541;28;20037;-65
2022/02/18 00:41:17;;;;;;;18.67;4.18;;;8.30;81.50;;;;;;5102487;28;20040;-65
2022/02/18 00:43:43;;;;;;;17.48;3.50;;;8.30;81.50;;;;;;5071126;28;20054;-65
2022/02/18 00:46:08;;;;;;;19.48;3.33;;;8.30;81.40;;;;;;5100606;28;20044;-66
2022/02/18 00:48:35;;;;;;;20.10;3.05;;;8.30;81.60;;;;;;5102491;27;20027;-65
2022/02/18 00:51:00;;;;;;;15.02;4.72;;;8.30;81.50;;;;;;5106622;28;20021;-65
2022/02/18 00:53:26;;;;;;;16.13;3.58;;;8.40;81.50;;;;;;5081601;28;20714;-65
2022/02/18 00:55:52;;;;;;;19.67;3.10;;;8.40;81.40;;;;;;5109346;27;20084;-65
2022/02/18 00:58:20;;;;;;;18.85;3.28;;;8.40;81.60;;;;;;5110240;28;20035;-65
2022/02/18 01:00:49;;;;;;;16.88;2.85;;;8.40;81.50;;;;;;5097941;27;20428;-65
2022/02/18 01:03:14;;;;;;;13.15;2.83;;;8.40;81.50;;;;;;5092608;27;20016;-65
2022/02/18 01:05:40;;;;;;;15.77;2.75;;;8.40;81.60;;;;;;5080535;27;20438;-65
2022/02/18 01:08:06;;;;;;;17.90;2.90;;;8.30;81.50;;;;;;5083023;28;20085;-66
2022/02/18 01:10:31;;;;;;;18.88;3.45;;;8.30;81.60;;;;;;5103463;27;20035;-65
2022/02/18 01:12:57;;;;;;;16.75;2.83;;;8.30;81.60;;;;;;5124952;27;20121;-65
2022/02/18 01:15:23;;;;;;;20.02;3.45;;;8.40;81.70;;;;;;5106417;28;20248;-65
2022/02/18 01:17:50;;;;;;;20.08;3.40;;;8.30;81.60;;;;;;5109651;28;20430;-65
2022/02/18 01:20:16;;;;;;;15.73;3.35;;;8.30;81.80;;;;;;5112613;27;20106;-65
2022/02/18 01:22:42;;;;;;;20.55;3.83;;;8.30;81.70;;;;;;5104073;27;20477;-65
2022/02/18 01:25:11;;;;;;;17.35;3.50;;;8.30;81.70;;;;;;5112045;27;20031;-65
2022/02/18 01:27:39;;;;;;;20.70;3.83;;;8.30;81.70;;;;;;5112804;28;20389;-65
2022/02/18 01:30:05;;;;;;;14.60;4.00;;;8.30;82.00;;;;;;5120359;27;20031;-65
2022/02/18 01:32:31;;;;;;;18.08;2.97;;;8.30;81.90;;;;;;5104205;27;20509;-66
2022/02/18 01:34:58;;;;;;;16.63;2.90;;;8.30;81.90;;;;;;5127190;27;20024;-66
2022/02/18 01:37:27;;;;;;;17.85;4.50;;;8.30;81.90;;;;;;5093619;28;20039;-65
2022/02/18 01:39:52;;;;;;;19.30;5.00;;;8.30;81.90;;;;;;5122197;27;20023;-66
2022/02/18 01:42:19;;;;;;;18.13;3.03;;;8.30;82.00;;;;;;5124137;27;20379;-65
2022/02/18 01:44:47;;;;;;;14.82;3.00;;;8.30;82.10;;;;;;5108946;27;20082;-65
2022/02/18 01:47:15;;;;;;;14.90;3.25;;;8.30;82.10;;;;;;5128471;27;20106;-65
2022/02/18 01:49:42;;;;;;;17.88;3.80;;;8.30;82.00;;;;;;5107769;28;20047;-65
2022/02/18 01:52:09;;;;;;;23.45;3.47;;;8.30;82.10;;;;;;5109568;28;20019;-65
2022/02/18 01:54:34;;;;;;;15.05;3.70;;;8.30;82.10;;;;;;5110658;28;20036;-65
2022/02/18 01:57:01;;;;;;;14.52;3.42;;;8.30;82.00;;;;;;5092756;28;20501;-65
2022/02/18 01:59:28;;;;;;;11.77;3.10;;;8.30;82.00;;;;;;5110030;28;20451;-64
2022/02/18 02:01:54;;;;;;;15.02;2.65;;;8.30;81.90;;;;;;5110373;28;20051;-65
2022/02/18 02:04:20;;;;;;;15.20;3.13;;;8.30;81.90;;;;;;5109471;28;20039;-65
2022/02/18 02:06:46;;;;;;;17.15;3.10;;;8.30;81.70;;;;;;5110171;28;20039;-65
2022/02/18 02:09:13;;;;;;;14.02;3.40;;;8.40;81.80;;;;;;5109665;28;20027;-64
2022/02/18 02:11:39;;;;;;;14.07;3.78;;;8.40;81.80;;;;;;5101482;28;20060;-64
2022/02/18 02:14:05;;;;;;;19.25;3.95;;;8.30;81.70;;;;;;5104539;28;20062;-64
2022/02/18 02:16:32;;;;;;;15.65;2.72;;;8.40;81.80;;;;;;5109294;28;20051;-64
2022/02/18 02:18:57;;;;;;;15.93;3.40;;;8.40;81.80;;;;;;5108349;28;20092;-64
2022/02/18 02:21:25;;;;;;;8.77;2.72;;;8.40;81.60;;;;;;5110496;28;20497;-64
2022/02/18 02:23:51;;;;;;;17.50;3.08;;;8.40;81.60;;;;;;5110182;28;20023;-64
2022/02/18 02:26:17;;;;;;;12.52;2.53;;;8.40;81.50;;;;;;5110497;28;20077;-65
2022/02/18 02:28:43;;;;;;;20.38;4.03;;;8.40;81.40;;;;;;5109554;28;20036;-65
2022/02/18 02:31:08;;;;;;;25.55;4.20;;;8.50;81.40;;;;;;5110108;28;20039;-65
2022/02/18 02:33:34;;;;;;;17.00;3.15;;;8.50;81.30;;;;;;5110174;28;20039;-65
2022/02/18 02:36:00;;;;;;;16.17;2.90;;;8.50;81.30;;;;;;5109976;28;20497;-65
2022/02/18 02:38:26;;;;;;;12.85;3.17;;;8.50;81.20;;;;;;5091370;28;20032;-65
2022/02/18 02:40:51;;;;;;;13.93;3.63;;;8.50;81.10;;;;;;5110038;28;20386;-65
2022/02/18 02:43:17;;;;;;;14.32;3.00;;;8.50;81.10;;;;;;5091906;28;20032;-65
2022/02/18 02:45:43;;;;;;;13.93;3.17;;;8.50;81.10;;;;;;5091257;28;20541;-65
2022/02/18 02:48:09;;;;;;;12.27;2.80;;;8.50;81.00;;;;;;5109054;28;20570;-65
2022/02/18 02:50:35;;;;;;;14.13;3.58;;;8.50;81.00;;;;;;5110122;28;20094;-65
2022/02/18 02:53:00;;;;;;;10.82;3.15;;;8.50;81.10;;;;;;5110601;28;20024;-65
2022/02/18 02:55:26;;;;;;;17.13;3.17;;;8.50;81.00;;;;;;5101401;28;20362;-65
2022/02/18 02:57:52;;;;;;;20.30;4.28;;;8.50;81.00;;;;;;5129838;28;20039;-65
2022/02/18 03:00:18;;;;;;;20.23;4.20;;;8.50;81.00;;;;;;5118783;28;20041;-65
2022/02/18 03:02:44;;;;;;;13.20;3.83;;;8.50;81.10;;;;;;5086801;28;20048;-65
2022/02/18 03:05:12;;;;;;;12.63;3.22;;;8.40;81.10;;;;;;5108428;28;20024;-65
2022/02/18 03:07:38;;;;;;;15.70;4.10;;;8.40;81.10;;;;;;5114612;28;20032;-65
2022/02/18 03:10:05;;;;;;;12.88;3.22;;;8.40;81.00;;;;;;5087537;28;20032;-65
2022/02/18 03:12:31;;;;;;;21.83;4.93;;;8.40;81.10;;;;;;5098993;28;20027;-64
2022/02/18 03:14:57;;;;;;;19.48;3.67;;;8.40;81.20;;;;;;5101710;28;20016;-64
2022/02/18 03:17:23;;;;;;;18.70;4.07;;;8.40;81.10;;;;;;5095714;28;20077;-65
2022/02/18 03:19:49;;;;;;;12.13;3.95;;;8.40;81.10;;;;;;5120518;28;20027;-65
2022/02/18 03:22:16;;;;;;;16.08;4.15;;;8.40;81.00;;;;;;5086984;28;20017;-64
2022/02/18 03:24:42;;;;;;;18.88;4.15;;;8.50;81.20;;;;;;5103827;28;20028;-64
2022/02/18 03:27:08;;;;;;;17.83;3.65;;;8.50;81.10;;;;;;5088552;28;20382;-64
2022/02/18 03:29:33;;;;;;;14.55;3.83;;;8.50;81.00;;;;;;5104574;27;20033;-64
2022/02/18 03:32:00;;;;;;;25.08;5.53;;;8.50;81.00;;;;;;5104992;28;20093;-64
2022/02/18 03:34:25;;;;;;;15.88;3.58;;;8.50;81.10;;;;;;5115596;28;20660;-65
2022/02/18 03:36:51;;;;;;;16.55;4.30;;;8.50;81.10;;;;;;5109788;28;20106;-65
2022/02/18 03:39:17;;;;;;;17.17;4.68;;;8.50;81.10;;;;;;5117588;28;20028;-65
2022/02/18 03:41:42;;;;;;;18.95;4.95;;;8.50;81.20;;;;;;5124119;28;20134;-65
2022/02/18 03:44:08;;;;;;;15.25;4.20;;;8.50;81.20;;;;;;5111529;28;20031;-65
2022/02/18 03:46:34;;;;;;;17.40;3.90;;;8.50;81.10;;;;;;5129271;28;20085;-65
2022/02/18 03:49:00;;;;;;;19.40;4.45;;;8.50;81.10;;;;;;5128610;28;20110;-65
2022/02/18 03:51:26;;;;;;;18.85;4.80;;;8.50;81.20;;;;;;5120381;28;20570;-65
2022/02/18 03:53:52;;;;;;;17.90;4.65;;;8.50;81.30;;;;;;5114123;27;20044;-65
2022/02/18 03:56:19;;;;;;;24.52;5.43;;;8.50;81.40;;;;;;5113031;28;20042;-65
2022/02/18 03:58:45;;;;;;;15.85;4.18;;;8.50;81.60;;;;;;5119723;27;20030;-65
2022/02/18 04:01:11;;;;;;;15.63;5.15;;;8.50;81.60;;;;;;5100987;28;20050;-65
2022/02/18 04:03:37;;;;;;;20.30;4.38;;;8.50;82.20;;;;;;5111533;27;20034;-65
2022/02/18 04:06:03;;;;;;;19.55;4.68;;;8.50;81.60;;;;;;5121932;27;20035;-65
2022/02/18 04:08:29;;;;;;;21.42;3.95;;;8.50;81.60;;;;;;5132415;27;20019;-65
2022/02/18 04:10:55;;;;;;;19.00;4.30;;;8.50;81.60;;;;;;5133465;27;20556;-65
2022/02/18 04:13:21;;;;;;;22.75;5.13;;;8.50;81.60;;;;;;5130693;27;20026;-65
2022/02/18 04:15:46;;;;;;;18.35;4.65;;;8.50;81.80;;;;;;5094861;28;20036;-65
2022/02/18 04:18:12;;;;;;;27.13;5.10;;;8.60;81.90;;;;;;5109669;27;20550;-65
2022/02/18 04:20:38;;;;;;;20.13;5.10;;;8.60;82.10;;;;;;5113429;27;20040;-65
2022/02/18 04:23:03;;;;;;;14.93;4.00;;;8.60;82.20;;;;;;5112488;27;20106;-65
2022/02/18 04:25:30;;;;;;;21.20;3.95;;;8.60;82.20;;;;;;5094219;28;20020;-65
2022/02/18 04:28:07;;;;;;;22.92;4.63;;;8.60;82.10;;;;;;5124595;27;20607;-65
2022/02/18 04:30:33;;;;;;;17.88;3.85;;;8.50;82.10;;;;;;5112917;27;20027;-65
2022/02/18 04:32:59;;;;;;;20.10;4.40;;;8.60;82.10;;;;;;5114015;27;20023;-65
2022/02/18 04:35:26;;;;;;;19.13;4.20;;;8.60;82.10;;;;;;5102626;28;20031;-65
2022/02/18 04:37:52;;;;;;;17.00;3.90;;;8.60;82.00;;;;;;5111875;28;20027;-65
2022/02/18 04:40:18;;;;;;;20.58;3.95;;;8.60;82.00;;;;;;5112373;27;20389;-65
2022/02/18 04:42:45;;;;;;;18.38;4.53;;;8.60;82.10;;;;;;5112427;28;20375;-65
2022/02/18 04:45:13;;;;;;;24.17;4.07;;;8.60;82.10;;;;;;5113001;27;20177;-65
2022/02/18 04:47:39;;;;;;;20.80;4.47;;;8.60;82.30;;;;;;5111090;28;20098;-65
2022/02/18 04:50:06;;;;;;;19.50;3.63;;;8.60;82.30;;;;;;5119143;27;20104;-65
2022/02/18 04:52:33;;;;;;;18.10;3.78;;;8.60;82.40;;;;;;5114002;27;20030;-65
2022/02/18 04:55:00;;;;;;;22.35;4.22;;;8.60;82.30;;;;;;5112527;27;20035;-65
2022/02/18 04:57:26;;;;;;;23.02;4.45;;;8.60;82.30;;;;;;5097096;28;20193;-66
2022/02/18 04:59:51;;;;;;;17.98;3.85;;;8.60;82.30;;;;;;5104264;27;20110;-65
2022/02/18 05:02:17;;;;;;;18.30;4.53;;;8.60;82.40;;;;;;5090999;28;20028;-65
2022/02/18 05:04:44;;;;;;;14.93;3.60;;;8.60;82.40;;;;;;5103404;27;20035;-65
2022/02/18 05:07:09;;;;;;;20.55;4.65;;;8.50;82.50;;;;;;5113027;27;20481;-65
2022/02/18 05:09:35;;;;;;;18.58;4.50;;;8.60;82.60;;;;;;5114062;27;20055;-66
2022/02/18 05:12:01;;;;;;;18.70;3.95;;;8.50;82.50;;;;;;5110315;28;20019;-65
2022/02/18 05:14:27;;;;;;;17.88;4.10;;;8.50;82.60;;;;;;5117183;27;20024;-65
2022/02/18 05:16:52;;;;;;;17.58;3.50;;;8.50;82.80;;;;;;5086831;28;20031;-66
2022/02/18 05:19:18;;;;;;;14.43;4.20;;;8.50;83.00;;;;;;5072549;28;20059;-66
2022/02/18 05:21:43;;;;;;;26.95;5.38;;;8.50;82.90;;;;;;5094506;28;20402;-66
2022/02/18 05:24:09;;;;;;;19.02;4.97;;;8.40;83.10;;;;;;5099275;27;20027;-66
2022/02/18 05:26:36;;;;;;;15.65;3.53;;;8.40;83.30;;;;;;5113210;27;20027;-66
2022/02/18 05:29:04;;;;;;;25.42;4.75;;;8.40;83.30;;;;;;5104473;28;20371;-66
2022/02/18 05:31:30;;;;;;;20.13;4.50;;;8.40;83.60;;;;;;5127280;27;20070;-66
2022/02/18 05:33:56;;;;;;;22.35;3.83;;;8.40;83.70;;;;;;5130549;27;20031;-66
2022/02/18 05:36:22;;;;;;;25.67;4.43;;;8.40;83.80;;;;;;5131921;27;20381;-66
2022/02/18 05:38:48;;;;;;;14.45;3.40;;;8.40;83.70;;;;;;5126253;27;20035;-66
2022/02/18 05:41:14;;;;;;;27.75;5.15;;;8.40;83.70;;;;;;5112765;27;20043;-66
2022/02/18 05:43:40;;;;;;;23.92;4.10;;;8.40;83.80;;;;;;5129740;27;20039;-66
2022/02/18 05:46:05;;;;;;;22.35;4.20;;;8.40;83.90;;;;;;5131155;27;20047;-66
2022/02/18 05:48:31;;;;;;;21.40;5.00;;;8.40;84.10;;;;;;5111305;27;20041;-66
2022/02/18 05:50:58;;;;;;;22.70;4.22;;;8.40;84.10;;;;;;5077070;27;20028;-66
2022/02/18 05:53:24;;;;;;;27.63;4.00;;;8.40;84.00;;;;;;5125112;27;20038;-66
2022/02/18 05:55:49;;;;;;;27.42;5.03;;;8.50;84.00;;;;;;5110852;28;20027;-64
2022/02/18 05:58:15;;;;;;;27.42;4.53;;;8.40;84.30;;;;;;5126015;27;20091;-65
2022/02/18 06:00:41;;;;;;;29.30;4.35;;;8.40;84.40;;;;;;5100702;27;20027;-65
2022/02/18 06:03:06;;;;;;;25.77;4.55;;;8.50;84.60;;;;;;5123318;27;20473;-65
2022/02/18 06:05:32;;;;;;;23.75;3.88;;;8.40;84.50;;;;;;5113565;27;20027;-65
2022/02/18 06:07:58;;;;;;;30.95;5.10;;;8.50;84.50;;;;;;5130414;27;20443;-65
2022/02/18 06:10:23;;;;;;;24.45;5.00;;;8.50;84.60;;;;;;5129266;27;20031;-65
2022/02/18 06:12:49;;;;;;;26.33;5.03;;;8.50;84.60;;;;;;5110600;28;20027;-65
2022/02/18 06:15:15;;;;;;;23.98;5.05;;;8.50;84.70;;;;;;5110187;27;20039;-65
2022/02/18 06:17:41;;;;;;;24.45;5.15;;;8.50;84.80;;;;;;5091174;28;20031;-65
2022/02/18 06:20:08;;;;;;;25.83;5.40;;;8.50;84.80;;;;;;5111939;27;20397;-65
2022/02/18 06:22:36;;;;;;;28.65;5.70;;;8.50;84.80;;;;;;5110460;27;20031;-65
2022/02/18 06:25:03;;;;;;;24.52;5.05;;;8.50;84.90;;;;;;5111236;27;20385;-65
2022/02/18 06:27:29;;;;;;;26.50;5.22;;;8.50;85.00;;;;;;5109872;28;20501;-65
2022/02/18 06:29:56;;;;;;;21.23;4.47;;;8.50;85.00;;;;;;5094538;27;20277;-65
2022/02/18 06:32:22;;;;;;;21.50;4.88;;;8.50;85.10;;;;;;5129270;27;20042;-65
2022/02/18 06:34:48;;;;;;;27.05;4.70;;;8.50;85.10;;;;;;5091394;28;20102;-65
2022/02/18 06:37:14;;;;;;;18.90;4.20;;;8.40;85.10;;;;;;5110088;28;20379;-65
2022/02/18 06:39:40;;;;;;;24.40;5.43;;;8.40;85.10;;;;;;5129404;27;20140;-65
2022/02/18 06:42:06;;;;;;;18.55;4.22;;;8.50;85.20;;;;;;5130603;27;20031;-65
2022/02/18 06:44:32;;;;;;;21.00;4.07;;;8.50;85.30;;;;;;5089306;28;20401;-65
2022/02/18 06:46:57;;;;;;;26.65;4.50;;;8.50;85.40;;;;;;5087961;28;20055;-65
2022/02/18 06:49:23;;;;;;;21.98;3.92;;;8.50;85.70;;;;;;5088510;28;20032;-65
2022/02/18 06:51:55;;;;;;;20.10;4.15;;;8.50;85.90;;;;;;5090225;28;20024;-65
2022/02/18 06:54:25;;;;;;;21.67;3.92;;;8.40;85.80;;;;;;5103728;28;20039;-65
2022/02/18 06:56:51;;;;;;;24.38;4.57;;;8.40;86.00;;;;;;5088800;28;20364;-65
2022/02/18 06:59:20;;;;;;;23.10;4.68;;;8.40;86.10;;;;;;5101356;28;20386;-65
2022/02/18 07:01:54;;;;;;;22.60;4.22;;;8.40;86.40;;;;;;5099010;28;20152;-65
2022/02/18 07:04:20;;;;;;;25.27;5.93;;;8.40;86.60;;;;;;5074001;28;20032;-65
2022/02/18 07:06:46;;;;;;;23.10;4.60;;;8.40;87.30;;;;;;5097359;28;20506;-65
2022/02/18 07:09:12;;;;;;;20.73;4.57;;;8.40;87.00;;;;;;5081674;28;20081;-65
2022/02/18 07:11:38;;;;;;;21.88;4.45;;;8.30;87.00;;;;;;5081605;28;20016;-65
2022/02/18 07:14:06;;;;;;;23.20;3.85;;;8.30;87.20;;;;;;5098557;28;20031;-65
2022/02/18 07:16:32;;;;;;;22.10;4.70;;;8.30;87.30;;;;;;5095124;28;20038;-65
2022/02/18 07:18:59;;;;;;;24.83;4.30;;;8.30;87.50;;;;;;5100751;28;20040;-65
2022/02/18 07:21:25;;;;;;;22.20;3.85;;;8.30;87.60;;;;;;5093186;28;20558;-65
2022/02/18 07:23:51;;;;;;;20.50;3.92;;;8.30;87.80;;;;;;5069650;28;20103;-65
2022/02/18 07:26:17;;;;;;;24.48;4.28;;;8.30;88.10;;;;;;5103896;28;20036;-65
2022/02/18 07:28:43;;;;;;;26.33;4.35;;;8.30;89.30;;;;;;5105680;28;20031;-65
2022/02/18 07:31:09;;;;;;;26.17;5.03;;;8.30;88.60;;;;;;5103990;28;20036;-65
2022/02/18 07:33:34;;;;;;;18.50;4.50;;;8.30;88.90;;;;;;5103089;28;20029;-65
2022/02/18 07:36:00;;;;;;;22.00;3.70;;;8.30;88.90;;;;;;5088997;28;20028;-65
2022/02/18 07:38:26;;;;;;;22.13;4.18;;;8.30;89.10;;;;;;5092974;28;20497;-65
2022/02/18 07:40:51;;;;;;;13.43;3.25;;;8.30;89.30;;;;;;5099023;28;20032;-67
2022/02/18 07:43:17;;;;;;;18.70;4.32;;;8.40;89.40;;;;;;5098849;27;20049;-67
2022/02/18 07:45:43;;;;;;;22.13;4.20;;;8.30;89.20;;;;;;5094986;28;20059;-67
2022/02/18 07:48:08;;;;;;;17.05;3.92;;;8.40;89.60;;;;;;5098002;28;20032;-66
2022/02/18 07:50:35;;;;;;;18.88;4.28;;;8.40;89.60;;;;;;5093372;28;20099;-65
2022/02/18 07:53:00;;;;;;;20.05;3.97;;;8.40;89.60;;;;;;5082161;28;20039;-65
2022/02/18 07:55:26;;;;;;;23.05;4.18;;;8.40;89.80;;;;;;5100896;28;20036;-66
2022/02/18 07:57:52;;;;;;;21.08;3.65;;;8.40;90.00;;;;;;5097650;28;20032;-65
2022/02/18 08:00:18;;;;;;;19.05;4.10;;;8.40;90.00;;;;;;5099093;27;20474;-67
2022/02/18 08:02:44;;;;;;;19.52;4.70;;;8.40;90.10;;;;;;5077944;28;20027;-65
2022/02/18 08:05:10;;;;;;;18.48;3.92;;;8.40;90.30;;;;;;5081341;28;20036;-66
2022/02/18 08:07:36;;;;;;;17.00;4.18;;;8.40;90.30;;;;;;5084218;27;20027;-65
2022/02/18 08:10:02;;;;;;;16.92;3.50;;;8.40;90.40;;;;;;5104074;27;20032;-65
2022/02/18 08:12:28;;;;;;;27.52;4.75;;;8.40;90.50;;;;;;5089523;28;20039;-68
2022/02/18 08:14:54;;;;;;;18.15;3.97;;;8.50;90.50;;;;;;5097858;28;20482;-68
2022/02/18 08:17:20;;;;;;;15.25;3.72;;;8.50;90.60;;;;;;5106212;27;20161;-68
2022/02/18 08:19:45;;;;;;;18.92;3.95;;;8.60;90.70;;;;;;5088816;28;20106;-68
2022/02/18 08:22:13;;;;;;;18.00;4.43;;;8.60;90.70;;;;;;5097995;28;20031;-68
2022/02/18 08:24:40;;;;;;;17.92;4.68;;;8.60;90.80;;;;;;5099911;28;20150;-66
2022/02/18 08:27:06;;;;;;;20.00;3.95;;;8.60;90.70;;;;;;5092350;28;20128;-65
2022/02/18 08:29:32;;;;;;;21.55;3.50;;;8.60;90.80;;;;;;5103429;28;20182;-66
2022/02/18 08:31:58;;;;;;;18.67;4.15;;;8.70;90.80;;;;;;5105889;27;20035;-66
2022/02/18 08:34:24;;;;;;;21.98;3.97;;;8.70;90.70;;;;;;5091680;28;20040;-66
2022/02/18 08:36:50;;;;;;;18.10;3.88;;;8.70;90.70;;;;;;5100801;27;20100;-66
2022/02/18 08:39:16;;;;;;;26.92;4.97;;;8.70;90.80;;;;;;5093612;28;20053;-65
2022/02/18 08:41:41;;;;;;;22.10;4.10;;;8.80;90.90;;;;;;5121424;27;20496;-65
2022/02/18 08:44:08;;;;;;;16.90;4.28;;;8.80;90.90;;;;;;5125645;27;20474;-65
2022/02/18 08:46:36;;;;;;;15.88;4.25;;;8.80;91.00;;;;;;5119512;27;20051;-65
2022/02/18 08:49:03;;;;;;;18.73;4.45;;;8.80;91.00;;;;;;5106687;27;20024;-65
2022/02/18 08:51:29;;;;;;;13.60;4.20;;;8.90;91.00;;;;;;5100529;28;20037;-65
2022/02/18 08:53:55;;;;;;;22.35;4.32;;;8.90;91.10;;;;;;5093404;28;20051;-65
2022/02/18 08:56:21;;;;;;;13.20;3.45;;;8.90;91.10;;;;;;5111991;27;20461;-65
2022/02/18 08:58:47;;;;;;;17.77;4.65;;;8.90;91.10;;;;;;5107950;28;20042;-65
2022/02/18 09:01:12;;;;;;;20.08;4.93;;;9.00;91.20;;;;;;5100728;27;20028;-65
2022/02/18 09:03:38;;;;;;;19.00;5.03;;;9.00;91.30;;;;;;5101857;28;20031;-65
2022/02/18 09:06:06;;;;;;;15.30;3.90;;;9.00;91.30;;;;;;5084774;28;20035;-66
2022/02/18 09:08:31;;;;;;;16.17;4.03;;;9.00;91.30;;;;;;5078191;28;20111;-65
2022/02/18 09:10:57;;;;;;;18.50;4.10;;;9.10;91.30;;;;;;5101275;27;20542;-65
2022/02/18 09:13:25;;;;;;;18.40;3.95;;;9.10;91.30;;;;;;5093734;28;20734;-65
2022/02/18 09:15:51;;;;;;;17.15;4.57;;;9.10;91.40;;;;;;5096275;28;20398;-66
2022/02/18 09:18:17;;;;;;;14.52;3.42;;;9.20;91.50;;;;;;5094061;27;20058;-65
2022/02/18 09:20:48;;;;;;;14.70;4.40;;;9.20;91.50;;;;;;5104475;28;20024;-65
2022/02/18 09:23:14;;;;;;;19.67;5.10;;;9.20;91.50;;;;;;5090541;28;20490;-65
2022/02/18 09:25:41;;;;;;;14.90;3.72;;;9.20;91.60;;;;;;5101054;27;20463;-67
2022/02/18 09:28:07;;;;;;;13.73;4.00;;;9.30;91.70;;;;;;5079032;28;20509;-68
2022/02/18 09:30:37;;;;;;;14.15;3.47;;;9.30;91.70;;;;;;5093211;27;20148;-67
2022/02/18 09:33:03;;;;;;;15.52;4.03;;;9.40;91.70;;;;;;5098682;28;20050;-67
2022/02/18 09:35:29;;;;;;;11.88;3.53;;;9.30;91.80;;;;;;5101049;28;20529;-67
2022/02/18 09:37:55;;;;;;;14.02;3.92;;;9.40;91.80;;;;;;5091718;28;20063;-67
2022/02/18 09:40:20;;;;;;;10.48;3.30;;;9.50;92.00;;;;;;5099155;28;20035;-68
2022/02/18 09:42:47;;;;;;;15.85;3.53;;;9.50;92.00;;;;;;5095550;28;20032;-67
2022/02/18 09:45:15;;;;;;;11.52;3.35;;;9.50;92.00;;;;;;5096384;28;20047;-67
2022/02/18 09:47:41;;;;;;;9.70;3.22;;;9.60;92.00;;;;;;5097023;27;20054;-68
2022/02/18 09:50:08;;;;;;;9.40;3.25;;;9.70;92.10;;;;;;5102356;27;20023;-67
2022/02/18 09:52:34;;;;;;;9.20;3.40;;;9.70;92.10;;;;;;5097436;28;20046;-67
2022/02/18 09:55:00;;;;;;;10.40;3.33;;;9.70;92.30;;;;;;5102360;28;20026;-67
2022/02/18 09:57:26;;;;;;;6.90;3.10;;;9.70;92.30;;;;;;5085489;28;20122;-65
2022/02/18 09:59:52;;;;;;;8.10;3.60;;;9.80;92.30;;;;;;5106901;28;20035;-65
2022/02/18 10:02:19;;;;;;;8.70;3.28;;;9.80;92.30;;;;;;5122584;27;20449;-68
2022/02/18 10:04:45;;;;;;;7.95;3.13;;;9.90;92.30;;;;;;5090746;27;20494;-67
2022/02/18 10:07:11;;;;;;;6.82;3.30;;;9.90;92.40;;;;;;5090673;28;20466;-68
2022/02/18 10:09:42;;;;;;;9.02;3.00;;;9.90;92.20;;;;;;5125311;27;20102;-68
2022/02/18 10:12:09;;;;;;;5.90;3.08;;;10.00;92.30;;;;;;5103664;28;20028;-68
2022/02/18 10:14:51;;;;;;;4.57;2.78;;;10.00;92.30;;;;;;5102040;28;20031;-67
2022/02/18 10:17:17;;;;;;;5.75;2.90;;;10.10;92.30;;;;;;5074467;28;20085;-67
2022/02/18 10:19:53;;;;;;;5.60;2.80;;;10.10;92.30;;;;;;5106507;28;20023;-68
2022/02/18 10:22:27;;;;;;;3.97;2.65;;;10.10;92.30;;;;;;5106671;27;20039;-68
2022/02/18 10:24:54;;;;;;;6.40;2.95;;;10.20;92.40;;;;;;5090005;27;20056;-68
2022/02/18 10:27:22;;;;;;;4.57;2.50;;;10.20;92.50;;;;;;5077786;28;20035;-68
2022/02/18 10:29:58;;;;;;;4.50;2.80;;;10.30;92.40;;;;;;5097421;28;20021;-67
2022/02/18 10:32:25;;;;;;;3.95;2.20;;;10.30;92.40;;;;;;5094413;27;20375;-68
2022/02/18 10:35:00;;;;;;;6.78;3.30;;;10.40;92.40;;;;;;5093385;27;20070;-67
2022/02/18 10:37:30;;;;;;;3.50;2.58;;;10.40;92.40;;;;;;5081985;28;20023;-68
2022/02/18 10:40:10;;;;;;;3.90;2.40;;;10.40;92.40;;;;;;5098862;28;20733;-68
2022/02/18 10:42:37;;;;;;;4.85;2.70;;;10.50;92.40;;;;;;5098160;28;20020;-68
2022/02/18 10:45:24;;;;;;;2.53;2.30;;;10.50;92.40;;;;;;5108389;28;20375;-68
2022/02/18 10:48:05;;;;;;;2.83;2.17;;;10.50;92.40;;;;;;5099218;28;20027;-68
2022/02/18 10:50:31;;;;;;;3.38;1.88;;;10.60;92.40;;;;;;5080499;28;20093;-68
2022/02/18 10:53:19;;;;;;;3.22;2.20;;;10.60;92.30;;;;;;5107456;28;20054;-68
2022/02/18 10:55:58;;;;;;;3.40;2.15;;;10.60;92.40;;;;;;5097945;28;20098;-68
2022/02/18 10:58:28;;;;;;;3.47;2.38;;;10.70;92.40;;;;;;5099233;28;20040;-68
2022/02/18 11:01:32;;;;;;;3.60;2.10;;;10.70;92.30;;;;;;5107727;27;20419;-68
2022/02/18 11:04:00;;;;;;;2.90;2.10;;;10.70;92.20;;;;;;5027546;28;20087;-68
2022/02/18 11:06:33;;;;;;;2.75;1.85;;;10.80;92.20;;;;;;5029312;28;20034;-68
2022/02/18 11:09:05;;;;;;;3.55;1.95;;;10.80;92.20;;;;;;5063114;28;20077;-68
2022/02/18 11:11:39;;;;;;;2.38;1.83;;;10.80;92.20;;;;;;5112731;27;20028;-66
2022/02/18 11:14:11;;;;;;;4.72;2.20;;;10.90;92.10;;;;;;5108317;28;20037;-66
2022/02/18 11:16:41;;;;;;;2.13;1.90;;;10.90;92.10;;;;;;5102314;28;20032;-65
2022/02/18 11:19:06;;;;;;;2.80;1.65;;;10.90;92.00;;;;;;5101578;28;20608;-65
2022/02/18 11:21:32;;;;;;;3.97;1.90;;;10.90;92.00;;;;;;5096884;27;20114;-66
2022/02/18 11:24:02;;;;;;;2.55;1.80;;;10.90;91.90;;;;;;5100557;28;20466;-65
2022/02/18 11:26:29;;;;;;;1.60;1.50;;;11.00;91.80;;;;;;5106522;28;20016;-66
2022/02/18 11:28:56;;;;;;;3.15;1.52;;;11.00;91.70;;;;;;5098145;27;20081;-65
2022/02/18 11:31:28;;;;;;;1.90;1.30;;;11.00;91.60;;;;;;5075083;28;20035;-65
2022/02/18 11:34:08;;;;;;;2.67;1.30;;;11.10;91.50;;;;;;5098076;27;20031;-66
2022/02/18 11:36:47;;;;;;;4.30;2.28;;;11.20;91.40;;;;;;5100471;28;20031;-66
2022/02/18 11:39:43;;;;;;;1.95;1.10;;;11.20;91.10;;;;;;5102465;28;20026;-65
2022/02/18 11:42:27;;;;;;;1.80;1.25;;;11.30;91.10;;;;;;5097080;27;20032;-66
2022/02/18 11:44:55;;;;;;;1.10;1.00;;;11.30;91.00;;;;;;5096399;28;20036;-65
2022/02/18 11:47:23;;;;;;;2.95;1.00;;;11.30;90.80;;;;;;5107652;27;20071;-65
2022/02/18 11:49:52;;;;;;;1.65;1.10;;;11.30;90.80;;;;;;5106317;27;20020;-66
2022/02/18 11:52:22;;;;;;;1.23;1.08;;;11.30;90.70;;;;;;5102946;28;20035;-65
2022/02/18 11:54:48;;;;;;;1.45;0.85;;;11.40;90.70;;;;;;5093186;27;20028;-65
2022/02/18 11:57:17;;;;;;;1.05;0.90;;;11.40;90.60;;;;;;5098516;28;20607;-65
2022/02/18 12:00:07;;;;;;;1.52;0.85;;;11.50;90.60;;;;;;5103123;28;20031;-65
2022/02/18 12:02:41;;;;;;;0.98;0.85;;;11.50;90.40;;;;;;5105628;28;20466;-66
2022/02/18 12:05:17;;;;;;;1.17;0.82;;;11.50;90.30;;;;;;5091186;28;20050;-67
2022/02/18 12:07:47;;;;;;;2.22;0.90;;;11.60;90.30;;;;;;5094797;28;20096;-65
2022/02/18 12:10:25;;;;;;;1.92;0.82;;;11.60;90.20;;;;;;5105096;28;20023;-65
2022/02/18 12:13:09;;;;;;;0.95;0.90;;;11.60;90.10;;;;;;5087459;28;20028;-66
2022/02/18 12:15:38;;;;;;;1.02;0.90;;;11.70;90.00;;;;;;5090266;28;20040;-65
2022/02/18 12:18:09;;;;;;;1.23;0.70;;;11.70;89.70;;;;;;5104709;27;20295;-65
2022/02/18 12:20:44;;;;;;;1.85;0.88;;;11.70;89.30;;;;;;5106501;28;20024;-66
2022/02/18 12:23:26;;;;;;;1.85;0.90;;;11.80;89.00;;;;;;5084466;28;20114;-65
2022/02/18 12:26:17;;;;;;;3.20;1.00;;;11.80;88.70;;;;;;5107584;28;20031;-68
2022/02/18 12:28:44;;;;;;;1.45;1.00;;;11.90;88.40;;;;;;5106955;28;20624;-68
2022/02/18 12:31:10;;;;;;;3.83;1.20;;;11.90;88.20;;;;;;5086713;28;20044;-68
2022/02/18 12:33:37;;;;;;;1.10;1.00;;;11.90;88.10;;;;;;5105937;28;20433;-68
2022/02/18 12:36:08;;;;;;;1.10;0.85;;;12.00;88.00;;;;;;5093738;28;20359;-68
2022/02/18 12:38:34;;;;;;;0.93;0.80;;;12.00;87.80;;;;;;5109931;28;20027;-68
2022/02/18 12:41:03;;;;;;;1.80;1.00;;;12.00;87.70;;;;;;5107664;28;20032;-68
2022/02/18 12:43:30;;;;;;;1.02;0.88;;;12.10;87.80;;;;;;5107789;28;20026;-68
2022/02/18 12:46:05;;;;;;;1.55;0.90;;;12.10;87.60;;;;;;5106473;28;20051;-68
2022/02/18 12:48:47;;;;;;;2.00;1.00;;;12.10;87.50;;;;;;5080877;28;20081;-68
2022/02/18 12:51:22;;;;;;;1.10;0.80;;;12.10;87.50;;;;;;5082770;28;20029;-68